Time;durP1;ratioP1;P1;durP2;ratioP2;P2;SDS_P1;SDS_P2;PMS_P1;PMS_P2;Temp;Humidity;BMP_temperature;BMP_pressure;BME280_temperature;BME280_humidity;BME280_pressure;Samples;Min_cycle;Max_cycle;Signal;HPM_P1;HPM_P2
2023/01/04 00:01:04;;;;;;;18.30;12.50;;;6.40;88.60;;;;;;5005662;28;20185;-93
2023/01/04 01:00:28;;;;;;;7.03;6.53;;;6.80;86.30;;;;;;3685084;22;20262;-91
2023/01/04 01:05:29;;;;;;;6.87;6.30;;;6.90;85.90;;;;;;5042574;23;20217;-91
2023/01/04 01:08:23;;;;;;;7.57;6.20;;;6.80;86.10;;;;;;5041208;28;20181;-91
2023/01/04 01:10:47;;;;;;;6.57;6.07;;;6.90;85.90;;;;;;5041777;28;20192;-92
2023/01/04 01:13:13;;;;;;;7.17;6.00;;;6.90;85.70;;;;;;5041014;28;20201;-92
2023/01/04 01:15:45;;;;;;;7.73;6.80;;;7.00;85.50;;;;;;5041128;28;20172;-92
2023/01/04 01:18:14;;;;;;;9.13;6.47;;;6.90;85.50;;;;;;5041134;28;20170;-92
2023/01/04 01:21:03;;;;;;;10.23;7.37;;;7.00;85.30;;;;;;5041042;28;20158;-92
2023/01/04 01:24:05;;;;;;;19.83;7.33;;;7.00;85.40;;;;;;5041077;28;20204;-93
2023/01/04 01:26:30;;;;;;;6.50;5.90;;;7.00;85.30;;;;;;5039980;28;20177;-91
2023/01/04 01:28:56;;;;;;;9.70;6.10;;;7.00;85.40;;;;;;5040976;28;20169;-91
2023/01/04 01:31:26;;;;;;;6.67;6.13;;;6.90;85.50;;;;;;5040174;28;20177;-91
2023/01/04 01:33:55;;;;;;;5.63;5.20;;;7.00;85.20;;;;;;5040620;28;20231;-92
2023/01/04 01:36:23;;;;;;;8.67;6.00;;;7.00;85.20;;;;;;5040743;28;20221;-89
2023/01/04 01:38:48;;;;;;;13.33;5.90;;;7.00;85.10;;;;;;5040472;28;20166;-91
2023/01/04 01:41:44;;;;;;;8.40;6.53;;;7.10;84.60;;;;;;5040569;28;20184;-92
2023/01/04 01:44:34;;;;;;;7.00;5.80;;;7.00;85.00;;;;;;5038576;28;20237;-91
2023/01/04 01:47:00;;;;;;;10.70;6.40;;;7.00;85.00;;;;;;5040650;28;20162;-91
2023/01/04 01:49:32;;;;;;;8.37;6.10;;;7.00;85.10;;;;;;5040448;28;20229;-91
2023/01/04 01:52:06;;;;;;;10.10;6.27;;;7.10;84.60;;;;;;5040365;28;20178;-92
2023/01/04 01:54:35;;;;;;;11.73;6.33;;;7.10;84.70;;;;;;5040299;28;20197;-91
2023/01/04 01:57:04;;;;;;;5.77;5.47;;;7.10;84.60;;;;;;5040252;28;20174;-91
2023/01/04 01:59:35;;;;;;;7.53;5.93;;;7.10;84.60;;;;;;5040351;28;20173;-89
2023/01/04 02:02:01;;;;;;;8.60;6.03;;;7.10;84.50;;;;;;5040215;28;20268;-91
2023/01/04 02:04:26;;;;;;;7.40;5.80;;;7.10;84.40;;;;;;5040285;28;20332;-92
2023/01/04 02:06:55;;;;;;;8.97;6.23;;;7.10;84.30;;;;;;5040113;28;20225;-90
2023/01/04 02:09:22;;;;;;;6.60;5.67;;;7.10;84.50;;;;;;5040068;28;20158;-90
2023/01/04 02:11:48;;;;;;;8.87;6.40;;;7.10;84.30;;;;;;5039897;28;20165;-91
2023/01/04 02:14:25;;;;;;;5.87;5.40;;;7.20;84.00;;;;;;5039956;28;20197;-90
2023/01/04 02:17:19;;;;;;;5.77;5.30;;;7.20;84.40;;;;;;5040049;28;20173;-91
2023/01/04 02:19:52;;;;;;;7.60;6.00;;;7.10;84.50;;;;;;5039938;28;20201;-91
2023/01/04 02:22:56;;;;;;;6.23;5.73;;;7.30;84.00;;;;;;5039899;28;20211;-91
2023/01/04 02:25:39;;;;;;;6.90;6.27;;;7.30;83.80;;;;;;5039765;28;20168;-88
2023/01/04 02:28:28;;;;;;;6.70;6.20;;;7.30;83.70;;;;;;5039769;28;20161;-91
2023/01/04 02:31:08;;;;;;;6.23;5.70;;;7.30;83.90;;;;;;5039678;28;20154;-90
2023/01/04 02:33:47;;;;;;;8.13;5.70;;;7.30;84.00;;;;;;5039635;28;20205;-90
2023/01/04 02:36:36;;;;;;;10.30;6.23;;;7.20;84.00;;;;;;5039692;28;20162;-92
2023/01/04 02:39:11;;;;;;;6.50;6.00;;;7.30;83.70;;;;;;5039597;28;20241;-88
2023/01/04 02:41:51;;;;;;;10.07;6.13;;;7.30;83.80;;;;;;5038358;28;20161;-92
2023/01/04 02:44:54;;;;;;;6.37;5.87;;;7.30;84.20;;;;;;5039536;28;20149;-90
2023/01/04 02:50:31;;;;;;;6.23;5.53;;;7.30;84.00;;;;;;5040112;28;20164;-91
2023/01/04 02:53:24;;;;;;;6.40;5.77;;;7.30;84.40;;;;;;5039310;28;20220;-92
2023/01/04 02:55:55;;;;;;;7.40;5.87;;;7.30;85.00;;;;;;5039229;28;20173;-89
2023/01/04 02:58:35;;;;;;;6.47;5.90;;;7.20;85.40;;;;;;5039254;28;20186;-90
2023/01/04 03:07:13;;;;;;;5.80;5.30;;;7.20;85.80;;;;;;5039633;28;20176;-91
2023/01/04 03:09:43;;;;;;;9.17;5.80;;;7.10;86.30;;;;;;5039131;28;20192;-91
2023/01/04 03:12:30;;;;;;;6.20;5.70;;;7.00;86.90;;;;;;5038942;28;20253;-91
2023/01/04 03:15:22;;;;;;;5.77;5.37;;;7.00;87.10;;;;;;5039100;28;20180;-91
2023/01/04 03:17:58;;;;;;;6.47;5.47;;;6.90;87.60;;;;;;5038893;28;20154;-90
2023/01/04 03:20:32;;;;;;;7.53;5.70;;;6.90;87.80;;;;;;5038841;28;20164;-92
2023/01/04 03:35:48;;;;;;;5.80;5.30;;;6.80;88.90;;;;;;5039326;28;20172;-92
2023/01/04 07:36:20;;;;;;;29.30;27.30;;;8.70;95.20;;;;;;1337924;22;20637;-91
2023/01/04 08:02:12;;;;;;;36.07;33.47;;;9.00;95.10;;;;;;4228775;26;20229;-92
2023/01/04 08:04:38;;;;;;;35.13;32.73;;;9.10;95.20;;;;;;4996707;28;20181;-92
2023/01/04 08:07:03;;;;;;;34.97;32.53;;;9.00;95.30;;;;;;4993128;28;20174;-92
2023/01/04 08:09:29;;;;;;;36.27;33.57;;;9.20;95.40;;;;;;5000860;28;20182;-93
2023/01/04 08:11:55;;;;;;;36.00;33.07;;;9.10;95.40;;;;;;5014887;28;20193;-93
2023/01/04 08:14:24;;;;;;;40.63;37.83;;;9.10;95.50;;;;;;5018390;28;20185;-93
2023/01/04 08:17:27;;;;;;;39.77;37.03;;;9.10;95.50;;;;;;5016074;28;20182;-93
2023/01/04 08:36:16;;;;;;;36.87;33.93;;;9.30;95.60;;;;;;5407678;22;20217;-91
2023/01/04 08:38:46;;;;;;;40.57;38.07;;;9.40;95.60;;;;;;5422800;23;20281;-93
2023/01/04 08:41:12;;;;;;;36.73;34.20;;;9.40;95.60;;;;;;5020501;28;20170;-93
2023/01/04 08:43:37;;;;;;;41.60;39.00;;;9.40;95.50;;;;;;5075969;23;20235;-93
2023/01/04 08:46:04;;;;;;;38.73;36.33;;;9.50;95.50;;;;;;5193035;23;20212;-94
2023/01/04 08:48:34;;;;;;;34.73;32.53;;;9.50;95.40;;;;;;5033070;28;20177;-91
2023/01/04 08:51:18;;;;;;;32.97;31.07;;;9.50;95.40;;;;;;5036933;28;20169;-92
2023/01/04 08:53:46;;;;;;;33.63;31.57;;;9.60;95.20;;;;;;5040271;28;20225;-93
2023/01/04 08:56:11;;;;;;;32.33;30.33;;;9.60;95.20;;;;;;5039942;28;20172;-93
2023/01/04 08:58:37;;;;;;;32.80;30.90;;;9.60;95.20;;;;;;5038357;28;20205;-93
2023/01/04 09:01:05;;;;;;;32.73;30.80;;;9.70;95.20;;;;;;5033165;28;20177;-93
2023/01/04 09:03:31;;;;;;;30.97;29.17;;;9.70;95.20;;;;;;5032765;28;20228;-94
2023/01/04 09:06:06;;;;;;;31.67;29.87;;;9.70;95.20;;;;;;5033067;28;20260;-93
2023/01/04 09:08:32;;;;;;;32.23;30.43;;;9.80;95.30;;;;;;5031361;28;20212;-94
2023/01/04 09:11:06;;;;;;;33.53;31.63;;;9.80;95.40;;;;;;5027192;28;20202;-93
2023/01/04 09:13:35;;;;;;;28.93;27.23;;;9.80;95.40;;;;;;5025918;28;20205;-93
2023/01/04 09:16:03;;;;;;;33.13;30.93;;;9.80;95.30;;;;;;5024109;28;20229;-93
2023/01/04 09:18:28;;;;;;;35.83;33.73;;;9.80;95.30;;;;;;5028431;28;20237;-93
2023/01/04 09:20:54;;;;;;;29.53;27.80;;;9.90;95.40;;;;;;5029948;28;20193;-93
2023/01/04 09:23:20;;;;;;;32.63;30.73;;;9.90;95.30;;;;;;5027710;28;20209;-93
2023/01/04 09:25:45;;;;;;;36.07;34.07;;;10.00;95.30;;;;;;5028869;28;20610;-93
2023/01/04 09:28:11;;;;;;;32.40;30.60;;;10.00;95.30;;;;;;5025243;28;20197;-93
2023/01/04 09:30:36;;;;;;;29.37;27.67;;;10.00;95.30;;;;;;5024776;28;20189;-92
2023/01/04 09:33:02;;;;;;;34.17;32.27;;;10.00;95.30;;;;;;5026474;28;20204;-93
2023/01/04 09:35:27;;;;;;;35.93;33.80;;;10.00;95.40;;;;;;5031294;28;20170;-93
2023/01/04 09:37:54;;;;;;;37.63;35.40;;;10.00;95.40;;;;;;5031431;28;20184;-93
2023/01/04 09:40:29;;;;;;;39.57;37.37;;;10.00;95.40;;;;;;5031377;28;20177;-93
2023/01/04 09:42:55;;;;;;;38.40;36.27;;;10.00;95.40;;;;;;5032680;28;20220;-93
2023/01/04 09:45:25;;;;;;;37.27;35.17;;;10.00;95.40;;;;;;5032975;28;20177;-93
2023/01/04 09:47:58;;;;;;;38.47;36.37;;;10.00;95.50;;;;;;5031746;28;20260;-93
2023/01/04 09:50:32;;;;;;;37.07;34.97;;;10.10;95.50;;;;;;5031028;28;20205;-94
2023/01/04 09:53:46;;;;;;;37.73;35.53;;;10.00;95.50;;;;;;5035600;28;20211;-94
2023/01/04 09:56:35;;;;;;;37.40;35.30;;;10.10;95.60;;;;;;5006093;28;20181;-93
2023/01/04 09:59:13;;;;;;;37.70;35.60;;;10.10;95.50;;;;;;5038323;28;20153;-94
2023/01/04 10:01:54;;;;;;;38.10;36.00;;;10.20;95.40;;;;;;5038478;28;20200;-93
2023/01/04 10:04:27;;;;;;;36.70;34.70;;;10.20;95.30;;;;;;5037904;28;20180;-93
2023/01/04 10:06:53;;;;;;;31.10;29.40;;;10.20;95.30;;;;;;5037732;28;20161;-93
2023/01/04 10:09:22;;;;;;;38.87;36.67;;;10.30;95.20;;;;;;5036492;28;20281;-93
2023/01/04 10:12:12;;;;;;;39.57;37.27;;;10.20;95.20;;;;;;5025426;28;20260;-93
2023/01/04 10:15:16;;;;;;;36.00;34.00;;;10.30;95.10;;;;;;5017395;28;20205;-93
2023/01/04 10:17:52;;;;;;;34.70;32.80;;;10.30;94.90;;;;;;5026067;28;20184;-93
2023/01/04 10:20:49;;;;;;;32.87;31.07;;;10.30;94.70;;;;;;5035335;28;20165;-93
2023/01/04 10:23:32;;;;;;;27.60;26.10;;;10.50;94.40;;;;;;5034841;28;20208;-93
2023/01/04 10:26:11;;;;;;;29.53;27.93;;;10.50;94.20;;;;;;5036487;28;20169;-94
2023/01/04 10:28:58;;;;;;;32.00;30.27;;;10.50;94.30;;;;;;5037077;28;20180;-93
2023/01/04 10:31:33;;;;;;;29.47;27.87;;;10.50;94.40;;;;;;5038446;28;20164;-93
2023/01/04 10:34:20;;;;;;;29.40;27.70;;;10.50;94.30;;;;;;5039041;28;20255;-94
2023/01/04 10:36:47;;;;;;;32.03;30.03;;;10.40;94.50;;;;;;5038595;28;20166;-94
2023/01/04 10:39:16;;;;;;;29.77;27.87;;;10.40;94.70;;;;;;5038425;28;20166;-94
2023/01/04 10:41:49;;;;;;;34.90;33.00;;;10.40;94.70;;;;;;5038729;28;20157;-92
2023/01/04 10:44:41;;;;;;;37.13;34.97;;;10.40;94.80;;;;;;5036846;28;20153;-93
2023/01/04 10:47:28;;;;;;;36.27;34.27;;;10.50;94.70;;;;;;5037112;28;20181;-94
2023/01/04 10:49:57;;;;;;;37.33;35.23;;;10.50;94.70;;;;;;5036196;28;20157;-94
2023/01/04 10:52:45;;;;;;;38.67;36.53;;;10.50;94.60;;;;;;5037925;28;20229;-93
2023/01/04 10:56:06;;;;;;;38.20;36.00;;;10.60;94.60;;;;;;5038145;28;20239;-94
2023/01/04 10:58:42;;;;;;;39.00;36.90;;;10.60;94.60;;;;;;5016517;28;20173;-93
2023/01/04 11:01:17;;;;;;;39.83;37.50;;;10.70;94.50;;;;;;5037821;28;20161;-93
2023/01/04 11:22:19;;;;;;;53.07;50.17;;;10.70;95.10;;;;;;5066327;23;20232;-92
2023/01/04 11:32:46;;;;;;;49.77;47.07;;;10.70;95.40;;;;;;4383636;23;20675;-89
2023/01/04 11:35:14;;;;;;;40.53;38.33;;;10.70;95.40;;;;;;5052599;23;20229;-92
2023/01/04 11:38:06;;;;;;;42.57;40.17;;;10.70;95.40;;;;;;5014461;28;20189;-93
2023/01/04 11:40:32;;;;;;;44.20;41.67;;;10.70;95.50;;;;;;5016134;28;20202;-93
2023/01/04 12:01:04;;;;;;;42.93;40.60;;;10.70;95.80;;;;;;4998911;28;20283;-89
2023/01/04 12:03:37;;;;;;;53.17;50.17;;;10.70;95.80;;;;;;4994084;28;20672;-90
2023/01/04 12:06:23;;;;;;;51.93;49.10;;;10.70;95.80;;;;;;4994845;28;20217;-92
2023/01/04 12:08:49;;;;;;;52.27;49.33;;;10.70;95.90;;;;;;4998988;28;20204;-93
2023/01/04 12:11:35;;;;;;;52.97;49.83;;;10.70;95.80;;;;;;5007916;28;20234;-93
2023/01/04 12:14:02;;;;;;;52.83;49.93;;;10.70;95.80;;;;;;5012426;28;20213;-92
2023/01/04 12:16:27;;;;;;;50.73;48.00;;;10.70;95.80;;;;;;5009064;28;20240;-91
2023/01/04 12:19:00;;;;;;;51.93;49.13;;;10.80;95.80;;;;;;5010023;28;20158;-92
2023/01/04 12:21:59;;;;;;;54.17;51.17;;;10.80;95.70;;;;;;5024090;28;20158;-92
2023/01/04 12:45:14;;;;;;;49.93;46.73;;;11.00;94.90;;;;;;4862189;26;20199;-91
2023/01/04 12:50:30;;;;;;;45.43;42.60;;;11.00;94.60;;;;;;5045255;28;20718;-92
2023/01/04 12:53:03;;;;;;;45.73;43.23;;;11.10;94.50;;;;;;5044498;28;20212;-92
2023/01/04 12:55:40;;;;;;;48.33;45.53;;;11.00;94.20;;;;;;5044242;28;20177;-92
2023/01/04 12:58:27;;;;;;;47.57;44.77;;;11.00;94.20;;;;;;5044450;28;20261;-93
2023/01/04 13:00:52;;;;;;;44.07;41.37;;;11.20;94.10;;;;;;5044661;28;20150;-92
2023/01/04 13:03:18;;;;;;;45.47;42.93;;;11.10;93.90;;;;;;5041975;28;20216;-92
2023/01/04 13:05:53;;;;;;;43.70;41.00;;;11.10;93.90;;;;;;5042304;28;20177;-92
2023/01/04 13:08:18;;;;;;;42.00;39.40;;;11.20;93.70;;;;;;5022010;28;20631;-91
2023/01/04 13:16:31;;;;;;;40.67;37.77;;;11.20;93.40;;;;;;1024315;22;20527;-92
2023/01/04 13:19:00;;;;;;;38.60;36.20;;;11.20;93.40;;;;;;5020024;28;20169;-92
2023/01/04 13:24:27;;;;;;;41.87;39.03;;;11.20;93.40;;;;;;5071711;22;20236;-93
2023/01/04 13:26:54;;;;;;;41.03;38.27;;;11.20;93.40;;;;;;5007823;28;20170;-92
2023/01/04 13:29:32;;;;;;;38.43;35.90;;;11.20;93.40;;;;;;5020459;28;20158;-91
2023/01/04 13:32:02;;;;;;;40.13;37.13;;;11.20;93.40;;;;;;5016494;28;20186;-92
2023/01/04 13:34:36;;;;;;;42.33;39.63;;;11.20;93.40;;;;;;5021463;28;20190;-91
2023/01/04 13:37:12;;;;;;;37.47;34.83;;;11.10;93.40;;;;;;5017955;28;20172;-91
2023/01/04 13:39:44;;;;;;;37.03;34.53;;;11.20;93.20;;;;;;5018763;28;20162;-92
2023/01/04 13:42:23;;;;;;;39.17;36.33;;;11.20;93.10;;;;;;5019759;28;20173;-93
2023/01/04 13:45:26;;;;;;;37.80;35.10;;;11.20;93.10;;;;;;5020889;28;20167;-93
2023/01/04 13:47:56;;;;;;;36.43;33.40;;;11.10;93.10;;;;;;5016309;28;20229;-92
2023/01/04 13:50:28;;;;;;;38.20;35.07;;;11.20;93.00;;;;;;5019132;28;20166;-92
2023/01/04 13:52:54;;;;;;;34.77;32.33;;;11.20;93.00;;;;;;5019975;28;20210;-93
2023/01/04 13:55:23;;;;;;;37.17;34.37;;;11.20;93.00;;;;;;5018383;28;20205;-92
2023/01/04 13:58:00;;;;;;;36.00;33.20;;;11.20;93.10;;;;;;5019752;28;20205;-92
2023/01/04 14:00:30;;;;;;;35.60;33.07;;;11.20;93.00;;;;;;5017880;28;20190;-92
2023/01/04 14:03:30;;;;;;;36.43;32.57;;;11.20;93.00;;;;;;5000720;28;20276;-90
2023/01/04 14:06:22;;;;;;;31.70;28.93;;;11.20;93.00;;;;;;4996359;28;20166;-90
2023/01/04 14:09:03;;;;;;;34.77;32.00;;;11.30;93.00;;;;;;4999352;28;20193;-92
2023/01/04 14:14:32;;;;;;;34.27;31.17;;;11.20;93.00;;;;;;5017855;28;20221;-92
2023/01/04 14:17:30;;;;;;;32.20;29.53;;;11.30;93.00;;;;;;5019223;28;20169;-93
2023/01/04 14:20:23;;;;;;;33.87;31.17;;;11.20;92.90;;;;;;4993688;28;20194;-92
2023/01/04 14:22:59;;;;;;;35.93;33.23;;;11.10;93.00;;;;;;5018409;28;20190;-92
2023/01/04 14:25:43;;;;;;;33.53;31.03;;;11.10;93.20;;;;;;5016736;28;20177;-92
2023/01/04 14:28:18;;;;;;;33.40;30.90;;;11.20;93.10;;;;;;5010228;28;20170;-93
2023/01/04 14:31:02;;;;;;;32.07;29.57;;;11.20;93.10;;;;;;5017797;28;20202;-93
2023/01/04 14:36:16;;;;;;;31.03;28.63;;;11.10;93.00;;;;;;1330995;26;20217;-93
2023/01/04 14:38:59;;;;;;;32.27;29.57;;;11.10;92.90;;;;;;4994074;28;20178;-92
2023/01/04 14:41:35;;;;;;;31.27;28.07;;;11.20;92.80;;;;;;4993906;28;20171;-92
2023/01/04 14:44:07;;;;;;;29.80;26.93;;;11.20;92.60;;;;;;4994018;28;20217;-93
2023/01/04 14:46:33;;;;;;;29.53;26.53;;;11.20;92.60;;;;;;4998143;28;20159;-93
2023/01/04 14:48:58;;;;;;;32.27;28.97;;;11.20;92.60;;;;;;4997893;28;20222;-93
2023/01/04 14:54:09;;;;;;;28.40;26.00;;;11.20;92.50;;;;;;5029567;22;20238;-93
2023/01/04 14:56:35;;;;;;;29.40;26.73;;;11.10;92.60;;;;;;4998576;28;20202;-93
2023/01/04 14:59:00;;;;;;;29.13;26.70;;;11.10;92.60;;;;;;4999137;28;20178;-90
2023/01/04 15:01:27;;;;;;;27.13;23.93;;;11.10;92.60;;;;;;4997503;28;20187;-94
2023/01/04 15:03:52;;;;;;;33.07;24.77;;;11.10;92.50;;;;;;5013566;28;20186;-93
2023/01/04 15:06:18;;;;;;;25.77;23.17;;;11.10;92.40;;;;;;5011082;28;20181;-93
2023/01/04 15:08:43;;;;;;;27.50;24.67;;;11.20;92.40;;;;;;5015987;28;20177;-94
2023/01/04 15:11:11;;;;;;;27.77;24.93;;;11.10;92.50;;;;;;5016060;28;20176;-92
2023/01/04 15:13:37;;;;;;;35.33;26.37;;;11.00;92.70;;;;;;5008998;28;20214;-92
2023/01/04 15:16:11;;;;;;;35.20;26.17;;;11.10;92.90;;;;;;5013538;28;20173;-93
2023/01/04 15:19:13;;;;;;;27.27;24.53;;;11.10;92.80;;;;;;5018891;28;20264;-92
2023/01/04 16:23:58;;;;;;;18.97;17.37;;;10.40;92.50;;;;;;5014539;28;20205;-92
2023/01/04 17:30:22;;;;;;;35.57;17.83;;;10.70;91.20;;;;;;5003182;28;20245;-91
2023/01/04 22:40:55;;;;;;;25.20;13.67;;;10.00;88.90;;;;;;5353360;23;20260;-92
2023/01/04 22:43:21;;;;;;;27.77;14.23;;;10.00;88.90;;;;;;4999364;28;20196;-90
2023/01/04 22:45:46;;;;;;;36.80;13.03;;;9.90;88.80;;;;;;4998111;28;20227;-91
2023/01/04 22:48:12;;;;;;;28.67;13.20;;;9.90;88.80;;;;;;4996639;28;20186;-93
2023/01/04 22:50:38;;;;;;;22.63;12.97;;;10.00;88.90;;;;;;4996548;28;20178;-90
2023/01/04 22:53:03;;;;;;;34.17;13.33;;;9.90;88.80;;;;;;4997045;28;20202;-91
2023/01/04 22:55:29;;;;;;;28.80;13.60;;;9.90;88.80;;;;;;5003649;28;20217;-91
2023/01/04 22:57:54;;;;;;;31.17;14.27;;;10.00;88.70;;;;;;4998362;28;20548;-91
2023/01/04 23:00:20;;;;;;;26.00;13.77;;;10.00;88.80;;;;;;4997174;28;20182;-92
2023/01/04 23:02:45;;;;;;;31.90;13.93;;;9.90;88.80;;;;;;4995890;28;20190;-92
2023/01/04 23:05:17;;;;;;;21.27;11.30;;;9.90;88.90;;;;;;5003047;28;20178;-93
2023/01/04 23:07:43;;;;;;;24.40;11.50;;;9.90;88.80;;;;;;5005939;28;20267;-90
2023/01/04 23:10:08;;;;;;;32.13;13.00;;;9.90;88.90;;;;;;5003637;28;20197;-93
2023/01/04 23:12:34;;;;;;;25.30;12.50;;;9.90;89.10;;;;;;5008795;28;20194;-92
2023/01/04 23:15:02;;;;;;;27.17;13.93;;;9.80;89.50;;;;;;5008462;28;20313;-92
2023/01/04 23:17:27;;;;;;;27.90;13.40;;;9.80;89.60;;;;;;5012212;28;20182;-91
2023/01/04 23:19:53;;;;;;;30.13;13.40;;;9.80;89.50;;;;;;5002092;28;20178;-92
2023/01/04 23:22:18;;;;;;;33.07;13.50;;;9.80;89.20;;;;;;5002185;28;20256;-92
2023/01/04 23:24:44;;;;;;;30.63;15.10;;;9.80;89.40;;;;;;5000292;28;20257;-92
2023/01/04 23:27:09;;;;;;;29.10;16.23;;;9.70;90.20;;;;;;4999276;28;20198;-92
2023/01/04 23:29:35;;;;;;;30.20;16.27;;;9.60;91.00;;;;;;4998386;28;20181;-92
2023/01/04 23:32:00;;;;;;;26.43;17.80;;;9.50;91.30;;;;;;4996658;28;20198;-91
2023/01/04 23:34:27;;;;;;;25.57;16.33;;;9.50;91.30;;;;;;5000238;28;20214;-92
2023/01/04 23:36:53;;;;;;;34.63;15.77;;;9.50;91.20;;;;;;5002195;28;20233;-91
2023/01/04 23:39:18;;;;;;;36.77;17.20;;;9.50;90.90;;;;;;5002063;28;20177;-92
2023/01/04 23:41:44;;;;;;;35.27;16.70;;;9.50;90.90;;;;;;5011786;28;20274;-92
2023/01/04 23:44:18;;;;;;;26.73;15.20;;;9.50;90.80;;;;;;5005412;28;20573;-91
2023/01/04 23:46:44;;;;;;;27.93;15.80;;;9.60;90.60;;;;;;5006168;28;20181;-93
2023/01/04 23:49:11;;;;;;;31.13;14.10;;;9.50;90.50;;;;;;5004812;28;20250;-92
2023/01/04 23:51:37;;;;;;;25.93;13.27;;;9.50;90.40;;;;;;5005888;28;20178;-92
2023/01/04 23:54:04;;;;;;;21.83;12.33;;;9.60;90.10;;;;;;5006508;28;20214;-92
2023/01/04 23:56:29;;;;;;;22.50;12.30;;;9.70;89.60;;;;;;5002658;28;20545;-92
2023/01/04 23:58:55;;;;;;;34.90;14.10;;;9.60;89.20;;;;;;5005949;28;20225;-93
